Time;durP1;ratioP1;P1;durP2;ratioP2;P2;SDS_P1;SDS_P2;PMS_P1;PMS_P2;Temp;Humidity;BMP_temperature;BMP_pressure;BME280_temperature;BME280_humidity;BME280_pressure;Samples;Min_cycle;Max_cycle;Signal;HPM_P1;HPM_P2
2022/05/06 00:00:13;;;;;;;32.78;18.23;;;;;;;29.50;75.28;100736.88;5026512;28;66283;-35
2022/05/06 00:02:44;;;;;;;32.97;18.23;;;;;;;29.57;74.50;100729.59;5027714;28;69363;-35
2022/05/06 00:05:14;;;;;;;30.23;19.88;;;;;;;29.59;74.69;100732.91;5027041;28;66691;-34
2022/05/06 00:07:44;;;;;;;35.88;21.50;;;;;;;29.59;74.65;100733.72;5028632;28;69908;-41
2022/05/06 00:10:15;;;;;;;40.67;23.35;;;;;;;29.63;74.31;100742.25;5028956;28;66017;-43
2022/05/06 00:12:45;;;;;;;37.45;22.65;;;;;;;29.65;75.94;100731.25;5006327;28;70099;-39
2022/05/06 00:15:15;;;;;;;48.88;26.23;;;;;;;29.69;74.70;100733.28;5033378;28;65472;-43
2022/05/06 00:17:46;;;;;;;44.35;24.13;;;;;;;29.70;75.00;100740.38;5032845;28;70383;-43
2022/05/06 00:20:16;;;;;;;39.78;24.67;;;;;;;29.67;74.28;100730.00;5019674;28;65770;-43
2022/05/06 00:22:46;;;;;;;35.45;21.63;;;;;;;29.75;74.14;100737.81;5022102;28;69956;-46
2022/05/06 00:25:18;;;;;;;33.55;21.30;;;;;;;29.76;74.66;100734.09;5037675;28;65135;-44
2022/05/06 00:27:48;;;;;;;38.80;21.80;;;;;;;29.75;74.20;100729.72;5036608;28;70071;-42
2022/05/06 00:30:18;;;;;;;31.75;20.42;;;;;;;29.83;74.46;100745.69;5035690;28;66402;-41
2022/05/06 00:32:48;;;;;;;34.17;18.98;;;;;;;29.83;74.58;100742.97;5037265;28;69499;-42
2022/05/06 00:35:19;;;;;;;31.08;19.45;;;;;;;29.89;73.64;100754.81;5019475;28;65705;-43
2022/05/06 00:37:52;;;;;;;28.85;18.05;;;;;;;29.92;73.84;100759.81;5038073;28;70645;-43
2022/05/06 00:40:22;;;;;;;34.28;18.38;;;;;;;29.82;74.00;100743.22;5039594;28;65291;-43
2022/05/06 00:42:52;;;;;;;33.97;18.65;;;;;;;29.97;73.83;100764.56;5038062;28;70175;-41
2022/05/06 00:45:23;;;;;;;30.35;18.15;;;;;;;29.94;73.70;100756.88;5039428;28;66589;-39
2022/05/06 00:47:54;;;;;;;30.58;17.27;;;;;;;30.00;73.28;100766.81;5040444;28;69297;-38
2022/05/06 00:50:24;;;;;;;31.40;16.38;;;;;;;30.02;72.76;100753.91;5040092;28;66053;-39
2022/05/06 00:52:55;;;;;;;21.33;15.90;;;;;;;30.02;72.61;100753.91;5040119;28;70295;-39
2022/05/06 00:55:25;;;;;;;24.00;16.33;;;;;;;30.08;72.71;100763.84;5040113;28;66246;-39
2022/05/06 00:57:55;;;;;;;24.13;16.02;;;;;;;30.20;72.89;100781.06;5021719;28;69310;-40
2022/05/06 01:00:26;;;;;;;19.55;15.57;;;;;;;30.23;72.23;100775.25;5039151;28;65930;-39
2022/05/06 01:02:56;;;;;;;24.52;16.27;;;;;;;30.24;72.60;100774.19;5039146;28;69631;-38
2022/05/06 01:05:28;;;;;;;24.65;15.98;;;;;;;30.26;72.90;100777.50;5037619;28;66808;-40
2022/05/06 01:08:02;;;;;;;24.30;15.80;;;;;;;30.30;72.42;100787.91;5023186;28;70196;-39
2022/05/06 01:10:32;;;;;;;25.77;15.07;;;;;;;30.30;72.55;100772.50;5038329;28;66482;-39
2022/05/06 01:13:02;;;;;;;22.83;15.73;;;;;;;30.34;72.64;100794.53;5038287;28;70107;-39
2022/05/06 01:15:33;;;;;;;17.80;14.35;;;;;;;30.30;72.21;100772.50;5031258;28;66308;-37
2022/05/06 01:18:30;;;;;;;14.98;12.48;;;;;;;30.33;72.41;100777.47;5031164;28;70962;-35
2022/05/06 01:21:03;;;;;;;12.45;11.00;;;;;;;30.44;71.31;100767.81;5022184;28;65700;-36
2022/05/06 01:23:35;;;;;;;11.63;10.52;;;;;;;30.61;71.32;100787.84;5028292;28;70649;-36
2022/05/06 01:26:07;;;;;;;11.65;10.55;;;;;;;30.65;70.80;100786.38;5037277;28;66854;-35
2022/05/06 01:28:38;;;;;;;14.75;10.35;;;;;;;30.73;70.52;100777.97;5023780;28;69983;-37
2022/05/06 01:31:09;;;;;;;10.73;9.82;;;;;;;30.78;70.26;100781.88;5022048;28;65456;-37
2022/05/06 01:33:40;;;;;;;11.38;10.18;;;;;;;30.84;69.72;100783.72;5016803;28;70569;-37
2022/05/06 01:36:12;;;;;;;11.20;10.20;;;;;;;30.86;69.38;100787.06;5017498;28;66419;-37
2022/05/06 01:38:49;;;;;;;;;;;;;;;30.60;70.08;100791.63;5049668;28;69619;-35
2022/05/06 01:41:23;;;;;;;10.63;9.52;;;;;;;30.46;69.33;100700.75;5018102;28;66955;-36
2022/05/06 01:44:09;;;;;;;11.10;10.07;;;;;;;30.97;68.53;100772.78;5050631;28;69578;-36
2022/05/06 01:46:41;;;;;;;10.35;9.55;;;;;;;31.02;68.40;100781.06;5017545;28;65582;-37
2022/05/06 01:49:20;;;;;;;11.35;9.68;;;;;;;30.93;68.46;100766.16;5015205;28;69191;-36
2022/05/06 01:51:53;;;;;;;10.30;9.60;;;;;;;31.04;68.15;100770.84;5018771;28;66069;-36
2022/05/06 01:54:26;;;;;;;11.80;10.60;;;;;;;31.09;68.13;100770.16;5017425;28;68969;-36
2022/05/06 01:57:00;;;;;;;11.13;9.52;;;;;;;30.72;67.53;100705.91;5017363;28;66734;-36
2022/05/06 01:59:30;;;;;;;10.55;9.48;;;;;;;31.09;67.30;100765.59;5027135;28;70163;-37
2022/05/06 02:02:12;;;;;;;10.48;9.32;;;;;;;31.13;67.00;100764.06;5037316;28;65587;-37
2022/05/06 02:07:36;;;;;;;9.85;9.05;;;;;;;31.24;66.43;100777.94;5037746;28;65337;-37
2022/05/06 02:10:07;;;;;;;12.40;10.23;;;;;;;31.13;66.67;100749.69;5039382;28;70111;-36
2022/05/06 02:12:44;;;;;;;9.52;8.68;;;;;;;31.27;66.52;100772.88;5022733;28;42968;-37
2022/05/06 02:15:45;;;;;;;9.80;9.00;;;;;;;31.20;66.15;100755.03;4972299;28;70033;-36
2022/05/06 02:18:35;;;;;;;15.30;9.00;;;;;;;31.34;66.20;100784.50;5043149;28;66318;-37
2022/05/06 02:21:24;;;;;;;9.57;8.88;;;;;;;31.37;65.86;100777.78;5042760;28;70540;-36
2022/05/06 02:24:04;;;;;;;10.05;9.15;;;;;;;31.37;65.84;100766.97;5041371;28;65950;-36
2022/05/06 02:26:48;;;;;;;10.50;9.18;;;;;;;31.44;66.16;100767.72;5057748;28;69632;-36
2022/05/06 02:29:19;;;;;;;11.18;8.90;;;;;;;31.36;65.85;100751.75;5041696;28;66562;-36
2022/05/06 02:34:40;;;;;;;9.63;8.70;;;;;;;31.47;65.30;100750.16;5042921;28;66478;-37
2022/05/06 02:37:12;;;;;;;9.27;8.40;;;;;;;31.52;65.58;100753.84;5038839;28;70249;-36
2022/05/06 02:39:47;;;;;;;8.88;7.97;;;;;;;31.46;65.18;100738.50;5041747;28;65549;-36
2022/05/06 02:42:26;;;;;;;9.50;8.65;;;;;;;31.58;65.27;100752.94;5041158;28;70245;-36
2022/05/06 02:44:56;;;;;;;9.60;8.80;;;;;;;31.59;65.03;100743.78;5041081;28;66582;-36
2022/05/06 02:47:26;;;;;;;9.13;8.20;;;;;;;31.57;65.11;100742.34;5042439;28;69996;-36
2022/05/06 02:49:58;;;;;;;8.60;7.88;;;;;;;31.64;64.82;100742.25;5040074;28;64936;-36
2022/05/06 02:52:31;;;;;;;11.93;7.63;;;;;;;31.66;65.05;100738.25;5041625;28;70452;-36
2022/05/06 02:55:01;;;;;;;8.45;7.03;;;;;;;31.68;64.86;100733.44;5040432;28;66932;-36
2022/05/06 02:57:33;;;;;;;8.45;7.78;;;;;;;31.70;64.42;100747.56;5039455;28;69403;-37
2022/05/06 03:00:05;;;;;;;8.68;7.82;;;;;;;31.75;64.23;100736.84;5040688;28;66524;-37
2022/05/06 03:02:36;;;;;;;13.05;8.45;;;;;;;31.77;64.35;100755.63;5025166;28;70245;-36
2022/05/06 03:05:10;;;;;;;8.13;7.38;;;;;;;31.78;64.71;100730.16;5039716;28;66076;-37
2022/05/06 03:07:41;;;;;;;8.23;7.63;;;;;;;31.79;64.08;100727.22;5023961;28;69888;-36
2022/05/06 03:10:13;;;;;;;8.18;7.47;;;;;;;31.78;64.55;100727.44;5040840;28;65680;-37
2022/05/06 03:12:44;;;;;;;7.40;6.72;;;;;;;31.86;64.05;100737.16;5041384;28;70635;-37
2022/05/06 03:15:17;;;;;;;8.35;7.65;;;;;;;31.87;64.02;100738.78;5040896;28;65704;-36
2022/05/06 03:17:53;;;;;;;8.25;7.55;;;;;;;31.78;63.66;100719.31;5039163;28;70321;-37
2022/05/06 03:20:24;;;;;;;8.65;7.55;;;;;;;31.73;63.99;100708.31;5056688;28;66417;-37
2022/05/06 03:22:54;;;;;;;8.07;6.93;;;;;;;31.53;63.86;100671.47;5041342;28;70311;-36
2022/05/06 03:25:24;;;;;;;7.10;6.60;;;;;;;31.81;63.87;100713.41;5040100;28;66055;-36
2022/05/06 03:28:07;;;;;;;9.30;7.05;;;;;;;31.93;63.58;100732.47;5040827;28;70410;-36
2022/05/06 03:30:47;;;;;;;7.82;7.18;;;;;;;31.87;63.73;100712.47;5041015;28;66358;-36
2022/05/06 03:33:36;;;;;;;7.20;6.60;;;;;;;31.93;63.90;100717.03;5041098;28;69936;-36
2022/05/06 03:36:24;;;;;;;7.22;6.70;;;;;;;31.95;63.69;100714.06;5039152;28;65263;-36
2022/05/06 03:39:06;;;;;;;7.95;7.25;;;;;;;31.98;63.46;100708.19;5039092;28;70577;-36
2022/05/06 03:41:44;;;;;;;8.13;7.28;;;;;;;31.96;63.33;100705.72;5039986;28;65494;-37
2022/05/06 03:44:15;;;;;;;7.35;6.72;;;;;;;31.93;63.38;100695.34;5039404;28;70275;-36
2022/05/06 03:46:49;;;;;;;8.68;6.80;;;;;;;31.96;63.50;100697.59;5038928;28;66202;-36
2022/05/06 03:49:27;;;;;;;8.15;7.25;;;;;;;31.94;63.26;100690.72;5038346;28;69571;-36
2022/05/06 03:52:00;;;;;;;8.60;7.32;;;;;;;31.97;63.25;100695.69;5039296;28;66184;-37
2022/05/06 03:54:33;;;;;;;8.85;6.90;;;;;;;32.02;63.10;100704.78;5041005;28;70540;-36
2022/05/06 03:57:03;;;;;;;7.38;6.65;;;;;;;32.03;63.26;100701.00;5041810;28;66286;-37
2022/05/06 03:59:34;;;;;;;7.47;6.78;;;;;;;31.77;63.10;100652.56;5038301;28;69775;-36
2022/05/06 04:02:13;;;;;;;11.43;7.47;;;;;;;32.07;62.92;100689.69;5023480;28;66190;-36
2022/05/06 04:04:43;;;;;;;7.53;6.82;;;;;;;31.79;62.88;100635.00;5041189;28;69206;-35
2022/05/06 04:07:16;;;;;;;7.78;6.97;;;;;;;32.07;62.83;100681.53;5038409;28;65544;-36
2022/05/06 04:09:49;;;;;;;7.40;6.65;;;;;;;32.16;62.88;100688.31;5039370;28;70811;-37
2022/05/06 04:12:21;;;;;;;6.60;6.20;;;;;;;32.20;62.65;100684.88;5038572;28;66468;-36
2022/05/06 04:15:00;;;;;;;6.53;6.00;;;;;;;32.21;62.52;100681.13;5055780;28;70791;-36
2022/05/06 04:17:30;;;;;;;7.43;6.70;;;;;;;32.22;62.41;100671.06;5039796;28;66355;-36
2022/05/06 04:25:41;;;;;;;7.82;6.97;;;;;;;32.28;62.30;100665.53;5039144;28;70203;-37
2022/05/06 04:28:16;;;;;;;7.75;6.75;;;;;;;32.32;62.13;100660.47;5039559;28;66396;-37
2022/05/06 04:30:52;;;;;;;6.75;6.25;;;;;;;32.35;61.95;100648.31;5039247;28;69444;-37
2022/05/06 04:33:26;;;;;;;9.45;6.88;;;;;;;31.55;61.86;100519.41;5055944;28;66177;-37
2022/05/06 04:35:59;;;;;;;8.07;6.50;;;;;;;32.38;61.35;100654.09;5054173;28;69528;-36
2022/05/06 04:38:30;;;;;;;8.75;6.10;;;;;;;32.41;61.67;100659.06;5037352;28;65421;-37
2022/05/06 04:41:03;;;;;;;8.70;7.20;;;;;;;32.44;62.07;100650.44;5037644;28;69936;-41
2022/05/06 04:43:35;;;;;;;7.38;6.68;;;;;;;32.44;61.60;100645.00;5038939;28;65646;-37
2022/05/06 04:46:05;;;;;;;7.55;6.65;;;;;;;32.47;61.45;100643.72;5040281;28;70125;-37
2022/05/06 04:48:37;;;;;;;8.43;6.22;;;;;;;32.40;61.45;100630.25;5039567;28;65351;-36
2022/05/06 04:51:12;;;;;;;7.78;7.10;;;;;;;32.49;61.46;100639.72;5038210;28;71130;-36
2022/05/06 04:53:43;;;;;;;7.60;6.90;;;;;;;32.52;61.32;100637.59;5040902;28;66648;-36
2022/05/06 04:56:14;;;;;;;6.90;6.40;;;;;;;32.52;61.35;100624.03;5037043;28;70456;-37
2022/05/06 04:58:44;;;;;;;8.00;6.70;;;;;;;32.55;61.36;100626.25;5039210;28;66664;-37
2022/05/06 05:01:21;;;;;;;7.07;6.15;;;;;;;32.57;61.22;100613.25;5038532;28;70433;-37
2022/05/06 05:03:52;;;;;;;8.40;6.18;;;;;;;32.61;61.30;100617.16;5038841;28;65523;-37
2022/05/06 05:06:22;;;;;;;6.70;6.10;;;;;;;32.53;61.35;100590.38;5039987;28;69750;-37
2022/05/06 05:08:53;;;;;;;8.15;6.25;;;;;;;32.59;61.09;100605.69;5039593;28;65545;-36
2022/05/06 05:11:23;;;;;;;6.80;6.03;;;;;;;32.34;61.14;100557.06;5039585;28;70664;-37
2022/05/06 05:14:06;;;;;;;7.65;6.60;;;;;;;32.69;60.99;100600.50;5038745;28;66356;-37
2022/05/06 05:16:40;;;;;;;6.65;5.90;;;;;;;32.72;60.93;100605.44;5005531;28;70010;-37
2022/05/06 05:19:10;;;;;;;6.18;5.68;;;;;;;32.74;60.74;100600.59;5039499;28;66292;-36
2022/05/06 05:21:50;;;;;;;7.03;6.43;;;;;;;32.77;60.71;100591.97;5038575;28;70444;-36
2022/05/06 05:24:21;;;;;;;6.50;6.03;;;;;;;32.78;60.64;100585.47;5038875;28;66340;-36
2022/05/06 05:26:54;;;;;;;6.35;5.82;;;;;;;32.73;60.64;100563.63;5038969;28;69287;-36
2022/05/06 05:29:30;;;;;;;5.57;5.07;;;;;;;32.71;60.66;100554.91;5037600;28;66603;-37
2022/05/06 05:32:02;;;;;;;5.82;5.43;;;;;;;32.86;60.60;100579.66;5038829;28;69507;-37
2022/05/06 05:34:33;;;;;;;6.90;6.30;;;;;;;32.88;60.54;100582.97;5039268;28;65895;-37
2022/05/06 05:37:09;;;;;;;6.65;5.97;;;;;;;32.90;60.52;100572.69;5036335;28;69562;-37
2022/05/06 05:39:39;;;;;;;6.18;5.57;;;;;;;32.93;60.21;100574.94;5022545;28;65485;-36
2022/05/06 05:42:10;;;;;;;;;;;;;;;32.65;60.77;100564.84;5038137;28;70223;-37
2022/05/06 05:50:22;;;;;;;6.10;5.70;;;;;;;33.04;60.00;100558.81;5038905;28;66497;-36
2022/05/06 05:52:53;;;;;;;5.72;5.32;;;;;;;32.93;60.20;100542.31;5041503;28;69024;-37
2022/05/06 05:55:24;;;;;;;5.85;5.35;;;;;;;33.01;59.99;100532.16;5042674;28;66123;-36
2022/05/06 05:57:54;;;;;;;5.55;5.05;;;;;;;33.12;60.05;100540.22;5041989;28;69160;-37
2022/05/06 06:00:26;;;;;;;5.38;4.95;;;;;;;33.06;59.94;100524.91;5039605;28;65932;-37
2022/05/06 06:03:00;;;;;;;6.20;5.32;;;;;;;33.13;59.75;100519.34;5041583;28;70430;-37
2022/05/06 06:05:35;;;;;;;5.43;4.93;;;;;;;33.17;59.32;100525.94;5041264;28;65683;-36
2022/05/06 06:08:06;;;;;;;5.55;5.05;;;;;;;33.17;59.70;100515.06;5036009;28;69580;-37
2022/05/06 06:10:39;;;;;;;5.50;5.00;;;;;;;33.22;59.70;100508.91;5039783;28;65741;-36
2022/05/06 06:13:11;;;;;;;5.55;5.10;;;;;;;33.24;59.59;100504.88;5038209;28;70170;-35
2022/05/06 06:15:45;;;;;;;5.53;5.07;;;;;;;33.27;59.34;100498.94;5042097;28;66151;-36
2022/05/06 06:18:18;;;;;;;5.53;5.13;;;;;;;32.93;59.36;100430.09;5041957;28;69642;-37
2022/05/06 06:20:48;;;;;;;;;;;;;;;33.05;59.75;100489.84;5040995;28;65639;-36
2022/05/06 06:23:18;;;;;;;5.13;4.63;;;;;;;33.34;59.29;100472.41;5041408;28;70227;-38
2022/05/06 06:25:49;;;;;;;5.35;4.95;;;;;;;33.40;59.28;100480.63;5041434;28;66448;-37
2022/05/06 06:28:21;;;;;;;5.13;4.53;;;;;;;33.44;59.10;100460.88;5040044;28;70395;-37
2022/05/06 06:30:51;;;;;;;5.00;4.68;;;;;;;33.49;58.95;100463.69;5058269;28;65586;-37
2022/05/06 06:33:22;;;;;;;5.03;4.57;;;;;;;33.50;58.93;100459.88;5041210;28;70295;-37
2022/05/06 06:35:53;;;;;;;5.32;4.82;;;;;;;33.46;59.07;100441.56;5025267;28;66611;-38
2022/05/06 06:38:24;;;;;;;6.90;4.83;;;;;;;33.48;58.88;100439.44;5058225;28;70108;-37
2022/05/06 06:40:54;;;;;;;5.03;4.70;;;;;;;33.64;58.58;100438.63;5041376;28;65545;-37
2022/05/06 06:43:25;;;;;;;4.78;4.35;;;;;;;33.66;58.62;100441.94;5042425;28;70545;-37
2022/05/06 06:46:17;;;;;;;4.88;4.57;;;;;;;33.62;58.37;100435.31;5024425;28;65589;-37
2022/05/06 06:49:34;;;;;;;6.18;4.10;;;;;;;33.66;58.38;100425.63;5020069;28;70525;-37
2022/05/06 06:52:17;;;;;;;4.72;4.32;;;;;;;33.70;58.29;100426.75;5020902;28;65878;-36
2022/05/06 06:54:47;;;;;;;4.60;4.20;;;;;;;33.74;58.16;100430.63;5035138;28;70054;-35
2022/05/06 06:57:18;;;;;;;4.50;4.10;;;;;;;33.77;58.40;100435.56;5041114;28;66358;-36
2022/05/06 06:59:48;;;;;;;4.13;3.92;;;;;;;33.80;57.97;100437.78;5042067;28;69936;-36
2022/05/06 07:02:18;;;;;;;4.63;4.32;;;;;;;33.77;58.26;100432.84;5041302;28;66665;-36
2022/05/06 07:04:50;;;;;;;5.65;4.63;;;;;;;33.81;58.08;100428.53;5041877;28;70357;-37
2022/05/06 07:13:11;;;;;;;12.00;5.17;;;;;;;33.85;58.04;100433.47;5041192;28;66163;-36
2022/05/06 07:15:41;;;;;;;4.05;3.70;;;;;;;33.79;58.27;100408.94;5026538;28;70130;-36
2022/05/06 07:18:11;;;;;;;5.43;4.07;;;;;;;33.67;58.12;100361.97;5041691;28;66403;-36
2022/05/06 07:20:44;;;;;;;6.10;4.15;;;;;;;33.93;57.73;100397.66;5040050;28;70189;-36
2022/05/06 07:23:14;;;;;;;8.73;3.85;;;;;;;34.03;57.85;100403.25;5041167;28;66113;-37
2022/05/06 07:25:44;;;;;;;4.60;4.20;;;;;;;34.05;57.80;100394.88;5042472;28;69571;-36
2022/05/06 07:28:14;;;;;;;4.20;3.90;;;;;;;34.06;57.59;100402.75;5040264;28;65719;-37
2022/05/06 07:30:44;;;;;;;5.22;4.00;;;;;;;34.13;57.54;100406.13;5041445;28;69234;-37
2022/05/06 07:33:15;;;;;;;4.07;3.78;;;;;;;34.16;57.82;100394.72;5039663;28;65162;-36
2022/05/06 07:35:45;;;;;;;3.67;3.40;;;;;;;34.17;57.45;100399.09;5040226;28;70188;-36
2022/05/06 07:38:15;;;;;;;4.70;3.30;;;;;;;34.19;57.69;100398.84;5041671;28;66465;-36
2022/05/06 07:40:45;;;;;;;3.70;3.42;;;;;;;34.20;57.25;100404.00;5041092;28;70417;-36
2022/05/06 07:43:15;;;;;;;4.40;4.00;;;;;;;34.17;57.55;100396.38;5039911;28;66286;-36
2022/05/06 07:45:46;;;;;;;3.90;3.60;;;;;;;34.21;57.43;100400.25;5041802;28;69573;-37
2022/05/06 07:48:18;;;;;;;6.35;3.65;;;;;;;33.75;57.50;100315.28;5040854;28;66846;-36
2022/05/06 07:50:48;;;;;;;8.43;3.63;;;;;;;34.13;57.49;100386.22;5041010;28;69497;-36
2022/05/06 07:53:19;;;;;;;3.78;3.47;;;;;;;34.21;57.69;100389.34;5041627;28;65772;-36
2022/05/06 07:55:50;;;;;;;3.85;3.55;;;;;;;34.20;57.39;100390.41;5041361;28;69672;-36
2022/05/06 07:58:20;;;;;;;6.20;3.38;;;;;;;34.15;57.47;100374.00;5041232;28;66901;-36
2022/05/06 08:00:51;;;;;;;3.13;2.85;;;;;;;34.25;57.79;100385.03;5040612;28;69124;-36
2022/05/06 08:06:12;;;;;;;3.97;3.13;;;;;;;34.23;57.80;100384.44;5041015;28;70185;-36
2022/05/06 08:08:42;;;;;;;4.10;3.58;;;;;;;34.24;57.72;100388.84;5040679;28;66211;-36
2022/05/06 08:11:12;;;;;;;3.50;3.20;;;;;;;34.26;57.86;100392.09;5040647;28;69438;-37
2022/05/06 08:13:42;;;;;;;4.40;3.30;;;;;;;34.21;57.90;100383.91;5040997;28;66097;-36
2022/05/06 08:16:13;;;;;;;4.40;3.60;;;;;;;34.24;58.03;100377.94;5039977;28;69240;-36
2022/05/06 08:18:43;;;;;;;3.45;3.15;;;;;;;34.20;57.92;100370.53;5040646;28;65595;-35
2022/05/06 08:21:14;;;;;;;3.30;3.10;;;;;;;34.27;57.77;100379.34;5041261;28;69884;-36
2022/05/06 08:23:44;;;;;;;3.50;3.20;;;;;;;34.29;57.99;100373.63;5040242;28;65700;-36
2022/05/06 08:26:14;;;;;;;3.40;3.10;;;;;;;34.30;57.81;100370.66;5041275;28;69303;-43
2022/05/06 08:28:44;;;;;;;3.75;3.40;;;;;;;34.30;57.57;100372.53;5040728;28;66764;-36
2022/05/06 08:31:15;;;;;;;3.40;3.10;;;;;;;34.26;57.77;100364.06;5039308;28;69982;-38
2022/05/06 08:33:49;;;;;;;3.67;3.38;;;;;;;34.21;58.05;100359.41;5040893;28;66511;-36
2022/05/06 08:36:20;;;;;;;3.38;3.08;;;;;;;34.28;57.74;100366.53;5039705;28;69501;-37
2022/05/06 08:38:50;;;;;;;4.72;3.40;;;;;;;34.27;57.87;100371.16;5038714;28;65358;-37
2022/05/06 08:41:23;;;;;;;5.20;3.67;;;;;;;34.26;58.07;100375.78;5040503;28;70012;-36
2022/05/06 08:43:53;;;;;;;3.88;3.13;;;;;;;34.25;58.05;100385.03;5039439;28;65262;-37
2022/05/06 08:52:08;;;;;;;3.75;3.15;;;;;;;34.22;58.34;100374.66;5037969;28;69527;-36
2022/05/06 08:54:39;;;;;;;4.80;2.83;;;;;;;33.90;57.92;100330.16;5041102;28;66742;-36
2022/05/06 08:57:14;;;;;;;3.10;2.70;;;;;;;34.21;58.26;100374.88;5040498;28;70366;-36
2022/05/06 08:59:51;;;;;;;4.15;2.95;;;;;;;34.14;58.09;100360.66;5040206;28;66164;-37
2022/05/06 09:02:22;;;;;;;3.92;3.53;;;;;;;34.18;58.46;100368.06;5037534;28;70037;-35
2022/05/06 09:04:52;;;;;;;3.55;3.25;;;;;;;34.18;58.22;100367.25;5039392;28;65689;-38
2022/05/06 09:07:25;;;;;;;3.20;3.00;;;;;;;34.15;58.38;100363.13;5039201;28;71312;-37
2022/05/06 09:10:15;;;;;;;3.90;3.60;;;;;;;34.06;58.37;100353.78;5039254;28;65526;-35
2022/05/06 09:12:46;;;;;;;4.80;3.13;;;;;;;34.15;58.48;100359.59;5039931;28;70050;-36
2022/05/06 09:18:09;;;;;;;3.28;3.08;;;;;;;34.13;58.49;100368.03;5039658;28;69693;-37
2022/05/06 09:20:43;;;;;;;3.65;3.20;;;;;;;34.02;58.48;100353.44;5036800;28;65769;-38
2022/05/06 09:23:24;;;;;;;6.50;3.33;;;;;;;34.10;58.55;100373.97;5040030;28;69674;-36
2022/05/06 09:25:54;;;;;;;3.85;3.55;;;;;;;34.11;58.61;100359.28;5036634;28;65911;-36
2022/05/06 09:28:30;;;;;;;3.65;3.10;;;;;;;34.09;58.38;100364.16;5040542;28;69647;-37
2022/05/06 09:31:11;;;;;;;4.55;4.15;;;;;;;33.95;58.59;100351.97;5039902;28;66088;-37
2022/05/06 09:33:42;;;;;;;5.68;5.07;;;;;;;34.09;58.46;100366.06;5040157;28;69590;-37
2022/05/06 09:36:28;;;;;;;7.60;4.63;;;;;;;33.87;58.53;100336.09;5039604;28;66375;-36
2022/05/06 09:39:14;;;;;;;5.15;4.75;;;;;;;33.59;58.65;100283.53;5036908;28;69937;-37
2022/05/06 09:41:44;;;;;;;6.55;5.25;;;;;;;34.06;58.57;100364.66;5040672;28;67016;-36
2022/05/06 09:44:15;;;;;;;5.60;5.05;;;;;;;34.05;58.78;100359.50;5038677;28;70185;-37
2022/05/06 09:46:46;;;;;;;9.85;4.95;;;;;;;34.04;58.66;100366.78;5040306;28;65928;-37
2022/05/06 09:49:17;;;;;;;4.38;4.07;;;;;;;34.05;58.79;100373.91;5039816;28;70275;-36
2022/05/06 09:52:11;;;;;;;9.43;5.07;;;;;;;34.03;58.98;100376.03;5040675;28;66893;-36
2022/05/06 09:54:43;;;;;;;7.53;4.90;;;;;;;34.00;58.79;100376.53;5037937;28;70164;-36
2022/05/06 09:57:16;;;;;;;5.10;4.60;;;;;;;33.68;58.73;100333.69;5040734;28;66766;-40
2022/05/06 09:59:47;;;;;;;4.90;4.43;;;;;;;33.91;58.72;100375.34;5037999;28;69409;-36
2022/05/06 10:02:18;;;;;;;4.70;4.33;;;;;;;33.98;58.94;100405.91;5038117;28;66510;-36
2022/05/06 10:04:49;;;;;;;5.47;4.82;;;;;;;33.98;58.93;100395.00;5039023;28;70423;-37
2022/05/06 10:07:19;;;;;;;4.82;4.03;;;;;;;33.91;59.14;100394.41;5040030;28;66106;-36
2022/05/06 10:10:15;;;;;;;4.80;4.40;;;;;;;33.41;59.04;100321.91;5039312;28;70286;-36
2022/05/06 10:12:53;;;;;;;4.25;3.95;;;;;;;33.87;58.93;100391.34;5039739;28;66121;-36
2022/05/06 10:15:27;;;;;;;5.18;4.15;;;;;;;33.44;59.20;100321.38;5038764;28;69401;-37
2022/05/06 10:18:02;;;;;;;5.25;4.85;;;;;;;33.91;59.05;100410.72;5039120;28;66700;-37
2022/05/06 10:20:44;;;;;;;6.65;4.63;;;;;;;33.92;59.08;100406.91;5038966;28;69550;-36
2022/05/06 10:23:18;;;;;;;4.53;4.00;;;;;;;33.85;59.03;100403.53;5038702;28;66469;-36
2022/05/06 10:25:50;;;;;;;4.07;3.78;;;;;;;33.88;59.11;100412.03;5035484;28;70157;-38
2022/05/06 10:34:14;;;;;;;12.57;4.88;;;;;;;33.30;60.07;100362.53;5023689;28;66276;-37
2022/05/06 10:36:52;;;;;;;10.07;4.63;;;;;;;33.61;60.18;100416.56;5025933;28;67665;-42
2022/05/06 10:39:37;;;;;;;10.15;5.60;;;;;;;33.44;60.77;100413.84;5029939;28;66614;-36
2022/05/06 10:42:10;;;;;;;6.07;4.68;;;;;;;33.48;60.54;100423.13;5030688;28;71427;-40
2022/05/06 10:44:50;;;;;;;7.55;5.15;;;;;;;33.35;60.86;100419.69;5030432;28;66696;-38
2022/05/06 10:47:22;;;;;;;13.73;4.95;;;;;;;33.36;60.73;100429.47;5050493;28;68070;-37
2022/05/06 10:49:53;;;;;;;4.77;4.37;;;;;;;33.32;60.44;100431.06;5037231;28;65358;-38
2022/05/06 10:52:25;;;;;;;6.50;4.75;;;;;;;33.31;60.60;100439.44;5021142;28;70802;-38
2022/05/06 10:55:00;;;;;;;7.68;4.97;;;;;;;33.26;60.65;100432.03;5038686;28;66318;-37
2022/05/06 10:57:44;;;;;;;8.60;4.72;;;;;;;33.25;60.48;100446.69;5047485;28;70686;-38
2022/05/06 11:00:15;;;;;;;11.15;4.82;;;;;;;33.21;60.98;100445.56;5030374;28;66334;-37
2022/05/06 11:02:46;;;;;;;5.28;4.20;;;;;;;33.22;61.31;100460.78;5046189;28;70642;-38
2022/05/06 11:05:20;;;;;;;11.33;4.53;;;;;;;33.09;61.32;100440.19;5004267;28;66109;-39
2022/05/06 11:07:55;;;;;;;7.65;4.50;;;;;;;33.06;61.28;100432.53;5036179;28;69020;-38
2022/05/06 11:10:28;;;;;;;9.60;4.38;;;;;;;33.06;61.41;100442.56;5025749;28;66766;-37
2022/05/06 11:13:18;;;;;;;7.50;4.18;;;;;;;33.09;61.33;100442.91;5036225;28;70530;-36
2022/05/06 11:15:49;;;;;;;6.97;4.30;;;;;;;33.11;61.40;100454.34;5027132;28;65621;-37
2022/05/06 11:18:19;;;;;;;4.40;4.00;;;;;;;33.15;61.58;100457.41;5024629;28;69484;-38
2022/05/06 11:20:49;;;;;;;4.60;4.20;;;;;;;33.11;62.08;100453.53;5026149;28;66522;-37
2022/05/06 11:23:29;;;;;;;5.80;5.20;;;;;;;33.04;62.33;100447.41;5035608;28;70474;-36
2022/05/06 11:26:00;;;;;;;11.20;5.47;;;;;;;32.90;62.55;100431.41;5032885;28;65456;-37
2022/05/06 11:28:32;;;;;;;9.27;4.47;;;;;;;33.05;62.72;100451.81;5035514;28;69350;-37
2022/05/06 11:31:02;;;;;;;5.10;4.60;;;;;;;33.04;63.38;100466.44;5029727;28;66733;-37
2022/05/06 11:33:36;;;;;;;7.25;4.65;;;;;;;33.04;63.19;100469.16;5027359;28;70166;-40
2022/05/06 11:36:14;;;;;;;6.00;4.50;;;;;;;33.00;63.89;100465.28;5022871;28;64957;-37
2022/05/06 11:38:46;;;;;;;8.90;5.05;;;;;;;33.04;63.70;100477.31;5043181;28;70217;-38
2022/05/06 11:41:18;;;;;;;4.80;4.30;;;;;;;32.98;64.34;100472.81;5028996;28;66229;-37
2022/05/06 11:43:50;;;;;;;7.43;4.63;;;;;;;32.97;64.47;100492.94;5031765;28;69745;-38
2022/05/06 11:49:22;;;;;;;8.85;5.03;;;;;;;32.96;64.93;100497.53;5036104;28;70170;-37
2022/05/06 11:51:56;;;;;;;5.57;4.97;;;;;;;32.40;64.88;100418.53;5023661;28;65729;-39
2022/05/06 11:54:27;;;;;;;6.13;4.35;;;;;;;32.95;64.83;100501.31;5002582;28;68995;-37
2022/05/06 11:56:58;;;;;;;7.10;4.63;;;;;;;32.91;65.22;100511.03;5020849;28;65439;-38
2022/05/06 11:59:29;;;;;;;6.80;4.47;;;;;;;32.90;65.12;100510.22;5026406;28;70036;-37
2022/05/06 12:02:06;;;;;;;6.13;4.90;;;;;;;32.89;65.36;100527.56;5018923;28;65015;-37
2022/05/06 12:04:36;;;;;;;7.63;4.63;;;;;;;32.80;65.19;100504.56;5017230;28;70154;-37
2022/05/06 12:07:06;;;;;;;6.47;4.57;;;;;;;32.82;65.24;100501.59;5031862;28;65997;-38
2022/05/06 12:09:44;;;;;;;8.60;4.90;;;;;;;32.86;65.68;100525.31;5030294;28;69951;-38
2022/05/06 12:12:15;;;;;;;6.78;4.50;;;;;;;32.86;65.52;100525.31;5030179;28;65663;-38
2022/05/06 12:14:45;;;;;;;5.28;4.78;;;;;;;32.84;65.69;100527.44;5024144;28;71105;-37
2022/05/06 12:17:15;;;;;;;4.50;4.20;;;;;;;32.83;65.92;100531.25;5024256;28;65877;-38
2022/05/06 12:19:47;;;;;;;6.90;4.80;;;;;;;32.76;65.64;100518.88;5020542;28;70069;-38
2022/05/06 12:22:25;;;;;;;4.75;4.35;;;;;;;32.21;65.65;100446.91;5020880;28;65007;-38
2022/05/06 12:24:58;;;;;;;6.72;4.60;;;;;;;32.78;65.67;100536.56;5072951;28;70354;-37
2022/05/06 12:27:34;;;;;;;7.97;5.63;;;;;;;32.76;64.96;100535.97;5032018;28;65622;-37
2022/05/06 12:30:15;;;;;;;10.00;6.13;;;;;;;32.72;65.51;100537.56;5030366;28;70445;-38
2022/05/06 12:33:05;;;;;;;9.40;6.07;;;;;;;32.63;65.63;100541.72;5028978;28;65424;-40